createdAt,value
2023-01-19T00:02:01.879Z,98059.63
2023-01-19T00:04:48.446Z,98054.69
2023-01-19T00:07:34.669Z,98056.31
2023-01-19T00:10:21.241Z,98046.13
2023-01-19T00:13:07.717Z,98047.72
2023-01-19T00:15:54.448Z,98066.34
2023-01-19T00:18:40.775Z,98041.84
2023-01-19T00:21:27.047Z,98042.66
2023-01-19T00:24:14.122Z,98066.03
2023-01-19T00:27:03.547Z,98063.00
2023-01-19T00:29:49.841Z,98037.25
2023-01-19T00:32:36.343Z,98060.56
2023-01-19T00:35:22.635Z,98059.06
2023-01-19T00:38:09.707Z,98055.84
2023-01-19T00:40:55.796Z,98064.66
2023-01-19T00:43:42.214Z,98066.81
2023-01-19T00:46:28.738Z,98078.50
2023-01-19T00:49:15.095Z,98050.53
2023-01-19T00:52:01.413Z,98045.09
2023-01-19T00:54:47.700Z,98074.34
2023-01-19T00:57:34.788Z,98056.41
2023-01-19T01:00:21.765Z,98073.72
2023-01-19T01:03:08.353Z,98080.00
2023-01-19T01:05:54.636Z,98042.41
2023-01-19T01:08:41.239Z,98080.22
2023-01-19T01:11:29.055Z,98081.84
2023-01-19T01:14:15.682Z,98068.16
2023-01-19T01:17:02.496Z,98090.19
2023-01-19T01:19:49.195Z,98068.81
2023-01-19T01:22:35.923Z,98087.38
2023-01-19T01:25:25.378Z,98059.28
2023-01-19T01:28:12.191Z,98069.06
2023-01-19T01:30:58.436Z,98074.97
2023-01-19T01:33:45.011Z,98070.09
2023-01-19T01:36:33.420Z,98079.97
2023-01-19T01:39:20.465Z,98090.50
2023-01-19T01:42:17.737Z,98091.41
2023-01-19T01:45:24.578Z,98098.16
2023-01-19T01:48:27.758Z,98098.13
2023-01-19T01:51:48.173Z,98110.75
2023-01-19T01:54:34.463Z,98084.63
2023-01-19T01:57:21.105Z,98107.94
2023-01-19T02:00:08.634Z,98089.56
2023-01-19T02:02:55.493Z,98098.13
2023-01-19T02:05:43.142Z,98108.00
2023-01-19T02:08:58.134Z,98081.25
2023-01-19T02:12:03.075Z,98084.44
2023-01-19T02:14:49.538Z,98096.25
2023-01-19T02:17:36.132Z,98092.63
2023-01-19T02:20:25.964Z,98075.94
2023-01-19T02:23:24.847Z,98099.84
2023-01-19T02:26:16.105Z,98088.50
2023-01-19T02:29:05.300Z,98095.06
2023-01-19T02:31:52.821Z,98063.75
2023-01-19T02:34:39.240Z,98066.50
2023-01-19T02:37:30.149Z,98095.00
2023-01-19T02:40:21.911Z,98083.03
2023-01-19T02:43:09.366Z,98085.22
2023-01-19T02:45:56.273Z,98090.06
2023-01-19T02:48:42.721Z,98073.94
2023-01-19T02:51:29.152Z,98104.00
2023-01-19T02:54:27.679Z,98100.25
2023-01-19T02:57:47.890Z,98101.25
2023-01-19T03:00:58.338Z,98082.16
2023-01-19T03:03:58.690Z,98081.63
2023-01-19T03:06:52.779Z,98095.44
2023-01-19T03:09:54.188Z,98076.59
2023-01-19T03:12:47.987Z,98107.81
2023-01-19T03:15:43.329Z,98107.28
2023-01-19T03:18:33.955Z,98108.41
2023-01-19T03:21:24.563Z,98041.66
2023-01-19T03:24:13.864Z,98112.19
2023-01-19T03:27:06.084Z,98089.69
2023-01-19T03:29:57.814Z,98073.06
2023-01-19T03:32:51.697Z,98083.03
2023-01-19T03:35:43.003Z,98092.53
2023-01-19T03:38:34.455Z,98095.81
2023-01-19T03:41:23.806Z,98117.47
2023-01-19T03:44:12.134Z,98101.88
2023-01-19T03:46:59.758Z,98086.28
2023-01-19T03:49:47.822Z,98110.38
2023-01-19T03:52:34.188Z,98089.94
2023-01-19T03:55:20.760Z,98070.88
2023-01-19T03:58:06.921Z,98079.50
2023-01-19T04:00:53.157Z,98083.28
2023-01-19T04:03:39.562Z,98103.88
2023-01-19T04:06:27.001Z,98128.22
2023-01-19T04:09:13.547Z,98114.47
2023-01-19T04:12:01.595Z,98042.97
2023-01-19T04:14:48.249Z,98137.34
2023-01-19T04:17:34.682Z,98129.38
2023-01-19T04:20:21.750Z,98110.00
2023-01-19T04:23:08.348Z,98131.69
2023-01-19T04:26:03.247Z,98125.91
2023-01-19T04:28:49.603Z,98146.53
2023-01-19T04:31:36.863Z,98117.06
2023-01-19T04:34:23.292Z,98117.09
2023-01-19T04:37:09.929Z,98140.16
2023-01-19T04:39:56.258Z,98133.25
2023-01-19T04:42:44.900Z,98137.78
2023-01-19T04:45:31.492Z,98141.00
2023-01-19T04:48:19.028Z,98123.75
2023-01-19T04:51:05.769Z,98132.19
2023-01-19T04:53:52.001Z,98130.53
2023-01-19T04:56:38.654Z,98128.94
2023-01-19T04:59:24.851Z,98065.94
2023-01-19T05:02:11.728Z,98130.25
2023-01-19T05:04:58.438Z,98149.44
2023-01-19T05:07:45.566Z,98155.91
2023-01-19T05:10:31.990Z,98131.78
2023-01-19T05:13:19.166Z,98154.81
2023-01-19T05:16:06.631Z,98143.22
2023-01-19T05:18:53.264Z,98170.59
2023-01-19T05:21:39.492Z,98091.00
2023-01-19T05:24:26.295Z,98128.81
2023-01-19T05:27:12.368Z,98161.25
2023-01-19T05:29:59.002Z,98163.34
2023-01-19T05:32:45.220Z,98153.34
2023-01-19T05:35:36.158Z,98143.41
2023-01-19T05:38:34.232Z,98153.03
2023-01-19T05:41:21.681Z,98090.16
2023-01-19T05:44:09.353Z,98158.88
2023-01-19T05:46:56.018Z,98169.69
2023-01-19T05:49:42.636Z,98170.38
2023-01-19T05:52:29.046Z,98168.22
2023-01-19T05:55:16.876Z,98170.69
2023-01-19T05:58:03.345Z,98170.56
2023-01-19T06:00:49.936Z,98171.38
2023-01-19T06:03:37.445Z,98179.19
2023-01-19T06:06:23.979Z,98173.38
2023-01-19T06:09:10.664Z,98182.91
2023-01-19T06:11:59.452Z,98199.72
2023-01-19T06:14:46.133Z,98188.31
2023-01-19T06:17:33.424Z,98201.22
2023-01-19T06:20:20.091Z,98191.09
2023-01-19T06:23:06.562Z,98186.81
2023-01-19T06:25:53.391Z,98192.66
2023-01-19T06:28:40.095Z,98198.59
2023-01-19T06:31:26.424Z,98199.34
2023-01-19T06:34:12.832Z,98183.75
2023-01-19T06:36:59.132Z,98194.22
2023-01-19T06:39:45.521Z,98209.16
2023-01-19T06:42:32.219Z,98205.63
2023-01-19T06:45:19.086Z,98208.69
2023-01-19T06:48:06.277Z,98191.88
2023-01-19T06:50:52.731Z,98213.91
2023-01-19T06:53:39.340Z,98218.88
2023-01-19T06:56:26.171Z,98206.75
2023-01-19T06:59:12.874Z,98210.94
2023-01-19T07:01:59.234Z,98202.38
2023-01-19T07:04:45.845Z,98209.44
2023-01-19T07:07:32.642Z,98203.47
2023-01-19T07:10:19.468Z,98214.59
2023-01-19T07:13:05.744Z,98201.69
2023-01-19T07:15:52.564Z,98199.19
2023-01-19T07:18:40.302Z,98219.13
2023-01-19T07:21:29.130Z,98212.50
2023-01-19T07:24:15.665Z,98213.22
2023-01-19T07:27:02.164Z,98232.06
2023-01-19T07:29:48.764Z,98228.78
2023-01-19T07:32:35.990Z,98227.19
2023-01-19T07:35:22.535Z,98233.63
2023-01-19T07:38:08.995Z,98218.44
2023-01-19T07:41:06.752Z,98234.97
2023-01-19T07:43:53.198Z,98218.75
2023-01-19T07:46:39.834Z,98227.47
2023-01-19T07:49:26.165Z,98232.19
2023-01-19T07:52:12.724Z,98235.28
2023-01-19T07:54:59.513Z,98212.75
2023-01-19T07:57:51.012Z,98230.78
2023-01-19T08:00:38.419Z,98243.19
2023-01-19T08:03:25.022Z,98245.97
2023-01-19T08:06:20.811Z,98252.19
2023-01-19T08:09:07.234Z,98242.88
2023-01-19T08:11:53.920Z,98253.56
2023-01-19T08:14:40.461Z,98248.19
2023-01-19T08:17:27.003Z,98234.75
2023-01-19T08:20:13.580Z,98253.03
2023-01-19T08:23:01.367Z,98259.97
2023-01-19T08:25:48.287Z,98250.34
2023-01-19T08:28:34.806Z,98256.34
2023-01-19T08:31:24.458Z,98238.72
2023-01-19T08:34:11.312Z,98246.38
2023-01-19T08:36:58.720Z,98238.06
2023-01-19T08:39:45.425Z,98236.44
2023-01-19T08:42:31.824Z,98250.03
2023-01-19T08:45:18.340Z,98249.13
2023-01-19T08:48:06.336Z,98238.66
2023-01-19T08:50:53.251Z,98253.31
2023-01-19T08:53:41.555Z,98253.41
2023-01-19T08:56:28.790Z,98265.78
2023-01-19T08:59:15.406Z,98275.78
2023-01-19T09:02:01.994Z,98264.88
2023-01-19T09:04:48.825Z,98267.16
2023-01-19T09:07:35.808Z,98264.38
2023-01-19T09:10:22.204Z,98259.38
2023-01-19T09:13:11.012Z,98268.69
2023-01-19T09:15:57.704Z,98267.22
2023-01-19T09:18:45.930Z,98270.81
2023-01-19T09:21:32.547Z,98267.38
2023-01-19T09:24:19.295Z,98260.81
2023-01-19T09:27:05.957Z,98257.84
2023-01-19T09:29:55.043Z,98271.44
2023-01-19T09:32:41.453Z,98268.34
2023-01-19T09:35:27.858Z,98257.22
2023-01-19T09:38:15.605Z,98263.28
2023-01-19T09:41:01.900Z,98270.25
2023-01-19T09:43:58.218Z,98260.56
2023-01-19T09:46:44.733Z,98227.94
2023-01-19T09:49:40.289Z,98267.75
2023-01-19T09:52:27.232Z,98272.78
2023-01-19T09:55:27.470Z,98260.09
2023-01-19T09:58:16.580Z,98272.38
2023-01-19T10:01:16.447Z,98254.06
2023-01-19T10:04:21.414Z,98261.53
2023-01-19T10:07:29.000Z,98267.41
2023-01-19T10:10:25.861Z,98263.50
2023-01-19T10:13:39.235Z,98259.44
2023-01-19T10:16:42.416Z,98258.22
2023-01-19T10:19:43.738Z,98258.97
2023-01-19T10:22:33.399Z,98261.22
2023-01-19T10:25:23.783Z,98259.69
2023-01-19T10:28:13.595Z,98263.28
2023-01-19T10:31:00.323Z,98272.13
2023-01-19T10:33:48.133Z,98240.59
2023-01-19T10:36:37.222Z,98265.38
2023-01-19T10:39:23.787Z,98262.84
2023-01-19T10:42:15.204Z,98261.09
2023-01-19T10:45:02.024Z,98255.81
2023-01-19T10:47:49.100Z,98268.78
2023-01-19T10:50:39.880Z,98256.88
2023-01-19T10:53:26.404Z,98263.94
2023-01-19T10:56:16.848Z,98257.91
2023-01-19T10:59:06.787Z,98241.56
2023-01-19T11:02:15.910Z,98266.72
2023-01-19T11:05:22.480Z,98208.59
2023-01-19T11:08:31.298Z,98254.38
2023-01-19T11:11:19.927Z,98240.81
2023-01-19T11:14:17.325Z,98228.97
2023-01-19T11:17:03.840Z,98262.47
2023-01-19T11:19:57.185Z,98252.09
2023-01-19T11:22:43.801Z,98258.84
2023-01-19T11:25:32.820Z,98167.47
2023-01-19T11:28:27.301Z,98250.31
2023-01-19T11:31:13.806Z,98264.59
2023-01-19T11:34:22.005Z,98266.69
2023-01-19T11:37:14.354Z,98268.09
2023-01-19T11:40:04.195Z,98265.22
2023-01-19T11:42:50.813Z,98258.00
2023-01-19T11:45:37.720Z,98262.09
2023-01-19T11:48:32.218Z,98271.22
2023-01-19T11:51:22.373Z,98270.34
2023-01-19T11:54:34.849Z,98273.38
2023-01-19T11:57:21.355Z,98236.56
2023-01-19T12:00:22.722Z,98258.16
2023-01-19T12:03:30.647Z,98271.13
2023-01-19T12:06:21.998Z,98275.31
2023-01-19T12:09:23.345Z,98272.84
2023-01-19T12:12:15.609Z,98273.56
2023-01-19T12:15:02.253Z,98265.31
2023-01-19T12:17:51.640Z,98264.75
2023-01-19T12:20:51.765Z,98256.13
2023-01-19T12:23:56.271Z,98260.03
2023-01-19T12:26:54.406Z,98247.16
2023-01-19T12:29:42.040Z,98266.22
2023-01-19T12:32:36.930Z,98255.16
2023-01-19T12:36:00.753Z,98258.84
2023-01-19T12:39:01.295Z,98248.63
2023-01-19T12:42:03.319Z,98251.25
2023-01-19T12:45:05.195Z,98256.34
2023-01-19T12:47:53.443Z,98186.84
2023-01-19T12:50:39.966Z,98250.81
2023-01-19T12:53:26.834Z,98265.59
2023-01-19T12:56:16.199Z,98248.69
2023-01-19T12:59:04.666Z,98268.38
2023-01-19T13:02:27.847Z,98263.47
2023-01-19T13:05:18.813Z,98240.97
2023-01-19T13:08:14.068Z,98271.44
2023-01-19T13:11:00.789Z,98270.56
2023-01-19T13:13:50.573Z,98266.91
2023-01-19T13:16:36.757Z,98266.94
2023-01-19T13:19:35.019Z,98242.78
2023-01-19T13:22:47.269Z,98271.81
2023-01-19T13:25:35.632Z,98268.47
2023-01-19T13:28:30.825Z,98266.75
2023-01-19T13:31:18.525Z,98218.22
2023-01-19T13:34:13.342Z,98274.38
2023-01-19T13:37:00.471Z,98248.53
2023-01-19T13:39:50.165Z,98264.16
2023-01-19T13:42:39.964Z,98263.34
2023-01-19T13:45:33.407Z,98265.00
2023-01-19T13:48:22.794Z,98203.84
2023-01-19T13:51:17.870Z,98258.59
2023-01-19T13:54:06.150Z,98275.63
2023-01-19T13:56:54.692Z,98276.34
2023-01-19T13:59:41.132Z,98216.59
2023-01-19T14:02:27.668Z,98276.13
2023-01-19T14:05:20.914Z,98277.72
2023-01-19T14:08:13.620Z,98278.47
2023-01-19T14:11:02.381Z,98255.44
2023-01-19T14:13:49.179Z,98262.25
2023-01-19T14:16:35.790Z,98280.19
2023-01-19T14:19:22.557Z,98288.91
2023-01-19T14:22:09.279Z,98284.69
2023-01-19T14:24:55.585Z,98268.34
2023-01-19T14:27:43.853Z,98276.00
2023-01-19T14:30:32.010Z,98278.50
2023-01-19T14:33:35.034Z,98277.50
2023-01-19T14:36:29.600Z,98276.50
2023-01-19T14:39:23.393Z,98279.81
2023-01-19T14:42:26.922Z,98283.94
2023-01-19T14:45:20.350Z,98228.69
2023-01-19T14:48:29.300Z,98263.84
2023-01-19T14:51:22.669Z,98286.91
2023-01-19T14:54:17.195Z,98278.38
2023-01-19T14:57:04.115Z,98287.63
2023-01-19T15:04:23.295Z,98275.66
2023-01-19T15:07:17.656Z,98272.22
2023-01-19T15:10:04.874Z,98269.56
2023-01-19T15:12:53.045Z,98291.00
2023-01-19T15:15:39.694Z,98291.81
2023-01-19T15:18:27.376Z,98285.81
2023-01-19T15:21:15.629Z,98279.59
2023-01-19T15:24:03.760Z,98201.34
2023-01-19T15:26:50.363Z,98289.88
2023-01-19T15:29:36.747Z,98281.16
2023-01-19T15:32:22.987Z,98296.50
2023-01-19T15:35:20.978Z,98294.13
2023-01-19T15:38:10.082Z,98270.88
2023-01-19T15:40:57.552Z,98271.78
2023-01-19T15:43:43.958Z,98266.31
2023-01-19T15:46:30.288Z,98273.75
2023-01-19T15:49:16.482Z,98271.22
2023-01-19T15:52:02.795Z,98272.72
2023-01-19T15:54:49.165Z,98277.69
2023-01-19T15:57:35.586Z,98282.53
2023-01-19T16:00:22.135Z,98280.66
2023-01-19T16:03:10.323Z,98274.59
2023-01-19T16:06:01.648Z,98256.97
2023-01-19T16:08:50.596Z,98289.50
2023-01-19T16:11:38.303Z,98281.88
2023-01-19T16:14:24.656Z,98272.06
2023-01-19T16:17:11.042Z,98276.13
2023-01-19T16:19:57.264Z,98278.19
2023-01-19T16:22:43.522Z,98289.13
2023-01-19T16:25:31.005Z,98292.88
2023-01-19T16:28:17.168Z,98302.72
2023-01-19T16:31:04.644Z,98290.50
2023-01-19T16:33:50.737Z,98304.72
2023-01-19T16:36:40.322Z,98300.91
2023-01-19T16:39:26.874Z,98299.63
2023-01-19T16:42:13.222Z,98302.59
2023-01-19T16:44:59.909Z,98294.69
2023-01-19T16:47:50.454Z,98303.56
2023-01-19T16:50:36.848Z,98293.13
2023-01-19T16:53:23.141Z,98302.31
2023-01-19T16:56:13.475Z,98300.81
2023-01-19T16:58:59.980Z,98280.34
2023-01-19T17:01:47.025Z,98299.94
2023-01-19T17:04:33.264Z,98288.53
2023-01-19T17:07:19.657Z,98297.63
2023-01-19T17:10:06.812Z,98295.66
2023-01-19T17:12:53.222Z,98292.88
2023-01-19T17:15:39.734Z,98296.75
2023-01-19T17:18:26.302Z,98296.34
2023-01-19T17:21:14.156Z,98295.34
2023-01-19T17:24:01.373Z,98296.00
2023-01-19T17:26:48.935Z,98300.03
2023-01-19T17:29:35.532Z,98300.84
2023-01-19T17:32:22.155Z,98301.81
2023-01-19T17:35:09.496Z,98293.53
2023-01-19T17:37:56.824Z,98283.44
2023-01-19T17:40:43.348Z,98279.69
2023-01-19T17:43:29.931Z,98296.97
2023-01-19T17:46:17.573Z,98298.91
2023-01-19T17:49:06.481Z,98308.06
2023-01-19T17:51:54.396Z,98308.84
2023-01-19T17:54:41.050Z,98297.31
2023-01-19T17:57:28.143Z,98313.75
2023-01-19T18:00:15.062Z,98314.75
2023-01-19T18:03:01.696Z,98307.38
2023-01-19T18:05:58.018Z,98325.81
2023-01-19T18:08:46.366Z,98320.28
2023-01-19T18:11:33.710Z,98328.63
2023-01-19T18:14:20.070Z,98325.03
2023-01-19T18:17:06.653Z,98327.19
2023-01-19T18:19:54.746Z,98321.25
2023-01-19T18:22:41.206Z,98321.25
2023-01-19T18:25:27.534Z,98333.34
2023-01-19T18:28:13.995Z,98310.50
2023-01-19T18:31:01.020Z,98310.06
2023-01-19T18:33:48.277Z,98334.13
2023-01-19T18:36:34.870Z,98325.06
2023-01-19T18:39:21.415Z,98310.53
2023-01-19T18:42:07.799Z,98334.19
2023-01-19T18:44:54.173Z,98333.47
2023-01-19T18:47:40.638Z,98323.03
2023-01-19T18:50:27.392Z,98317.88
2023-01-19T18:53:13.887Z,98324.88
2023-01-19T18:56:04.357Z,98328.91
2023-01-19T18:58:52.188Z,98328.81
2023-01-19T19:01:38.879Z,98307.31
2023-01-19T19:04:25.573Z,98318.25
2023-01-19T19:07:12.099Z,98313.38
2023-01-19T19:09:58.353Z,98322.16
2023-01-19T19:12:45.178Z,98299.19
2023-01-19T19:15:32.985Z,98250.97
2023-01-19T19:18:19.763Z,98306.38
2023-01-19T19:21:09.234Z,98328.53
2023-01-19T19:23:57.337Z,98321.31
2023-01-19T19:26:43.998Z,98316.69
2023-01-19T19:29:30.729Z,98310.94
2023-01-19T19:32:20.307Z,98297.59
2023-01-19T19:35:06.804Z,98315.44
2023-01-19T19:37:57.339Z,98328.09
2023-01-19T19:40:43.954Z,98309.47
2023-01-19T19:43:32.851Z,98328.53
2023-01-19T19:46:20.830Z,98335.09
2023-01-19T19:49:07.455Z,98325.50
2023-01-19T19:51:54.311Z,98339.22
2023-01-19T19:54:40.830Z,98315.41
2023-01-19T19:57:27.019Z,98337.13
2023-01-19T20:00:13.738Z,98327.94
2023-01-19T20:03:00.764Z,98325.50
2023-01-19T20:05:47.924Z,98339.97
2023-01-19T20:08:34.905Z,98332.78
2023-01-19T20:11:25.647Z,98329.72
2023-01-19T20:14:13.512Z,98327.28
2023-01-19T20:17:00.623Z,98345.94
2023-01-19T20:19:48.841Z,98338.56
2023-01-19T20:22:35.579Z,98340.78
2023-01-19T20:25:22.376Z,98344.34
2023-01-19T20:28:08.792Z,98338.31
2023-01-19T20:30:55.325Z,98340.94
2023-01-19T20:33:47.187Z,98344.72
2023-01-19T20:36:33.979Z,98354.50
2023-01-19T20:39:22.025Z,98357.84
2023-01-19T20:42:13.619Z,98363.22
2023-01-19T20:45:00.452Z,98351.13
2023-01-19T20:47:46.852Z,98343.97
2023-01-19T20:50:33.426Z,98357.66
2023-01-19T20:53:20.111Z,98353.72
2023-01-19T20:56:14.743Z,98366.13
2023-01-19T20:59:02.113Z,98357.69
2023-01-19T21:01:48.752Z,98363.66
2023-01-19T21:04:35.613Z,98371.97
2023-01-19T21:07:21.977Z,98376.13
2023-01-19T21:10:08.670Z,98374.28
2023-01-19T21:12:56.461Z,98372.44
2023-01-19T21:15:42.698Z,98379.34
2023-01-19T21:18:29.105Z,98385.56
2023-01-19T21:21:29.339Z,98384.59
2023-01-19T21:24:17.166Z,98378.06
2023-01-19T21:27:03.561Z,98374.28
2023-01-19T21:29:50.069Z,98394.59
2023-01-19T21:32:36.551Z,98378.16
2023-01-19T21:35:22.637Z,98384.50
2023-01-19T21:38:09.365Z,98392.28
2023-01-19T21:40:57.649Z,98396.13
2023-01-19T21:43:44.237Z,98395.44
2023-01-19T21:46:32.683Z,98401.78
2023-01-19T21:49:20.284Z,98388.78
2023-01-19T21:52:06.710Z,98331.13
2023-01-19T21:54:53.347Z,98379.97
2023-01-19T21:57:39.715Z,98402.25
2023-01-19T22:00:29.632Z,98402.25
2023-01-19T22:03:16.793Z,98402.00
2023-01-19T22:06:08.003Z,98395.84
2023-01-19T22:08:55.157Z,98413.41
2023-01-19T22:11:41.699Z,98418.59
2023-01-19T22:14:28.309Z,98419.00
2023-01-19T22:17:14.406Z,98417.69
2023-01-19T22:20:00.975Z,98424.59
2023-01-19T22:22:47.309Z,98424.50
2023-01-19T22:25:33.638Z,98423.88
2023-01-19T22:28:20.009Z,98435.13
2023-01-19T22:31:11.777Z,98439.13
2023-01-19T22:33:58.683Z,98433.53
2023-01-19T22:36:44.950Z,98442.50
2023-01-19T22:39:32.094Z,98433.66
2023-01-19T22:42:18.377Z,98441.72
2023-01-19T22:45:05.244Z,98447.34
2023-01-19T22:47:51.801Z,98441.22
2023-01-19T22:50:38.063Z,98435.03
2023-01-19T22:53:24.646Z,98440.88
2023-01-19T22:56:17.316Z,98440.81
2023-01-19T22:59:05.835Z,98447.00
2023-01-19T23:01:52.331Z,98441.09
2023-01-19T23:04:39.545Z,98436.22
2023-01-19T23:07:25.692Z,98441.06
2023-01-19T23:10:12.338Z,98434.13
2023-01-19T23:12:58.689Z,98428.56
2023-01-19T23:15:45.287Z,98446.91
2023-01-19T23:18:32.426Z,98449.53
2023-01-19T23:21:20.517Z,98456.72
2023-01-19T23:24:07.703Z,98455.00
2023-01-19T23:26:54.016Z,98448.19
2023-01-19T23:29:40.225Z,98428.50
2023-01-19T23:32:26.825Z,98447.66
2023-01-19T23:35:14.514Z,98433.31
2023-01-19T23:38:01.327Z,98432.97
2023-01-19T23:40:47.664Z,98434.97
2023-01-19T23:43:34.781Z,98455.13
2023-01-19T23:46:21.541Z,98457.72
2023-01-19T23:49:08.071Z,98460.84
2023-01-19T23:51:54.450Z,98462.34
2023-01-19T23:54:40.847Z,98463.56
2023-01-19T23:57:27.682Z,98465.06
